sensor_id;sensor_type;location;lat;lon;timestamp;P1;durP1;ratioP1;P2;durP2;ratioP2
19038;SDS011;9652;49.014;12.052;2023-03-21T00:00:41;5.67;;;3.53;;
19038;SDS011;9652;49.014;12.052;2023-03-21T00:03:09;4.00;;;3.67;;
19038;SDS011;9652;49.014;12.052;2023-03-21T00:05:38;4.00;;;3.60;;
19038;SDS011;9652;49.014;12.052;2023-03-21T00:08:06;3.70;;;3.40;;
19038;SDS011;9652;49.014;12.052;2023-03-21T00:10:34;3.93;;;3.47;;
19038;SDS011;9652;49.014;12.052;2023-03-21T00:13:01;4.30;;;3.90;;
19038;SDS011;9652;49.014;12.052;2023-03-21T00:15:29;3.83;;;3.53;;
19038;SDS011;9652;49.014;12.052;2023-03-21T00:17:58;4.73;;;4.03;;
19038;SDS011;9652;49.014;12.052;2023-03-21T00:20:28;5.67;;;3.70;;
19038;SDS011;9652;49.014;12.052;2023-03-21T00:22:58;5.40;;;4.27;;
19038;SDS011;9652;49.014;12.052;2023-03-21T00:25:25;4.23;;;3.83;;
19038;SDS011;9652;49.014;12.052;2023-03-21T00:27:53;4.07;;;3.77;;
19038;SDS011;9652;49.014;12.052;2023-03-21T00:30:20;4.37;;;3.33;;
19038;SDS011;9652;49.014;12.052;2023-03-21T00:32:48;4.37;;;3.73;;
19038;SDS011;9652;49.014;12.052;2023-03-21T00:35:17;4.70;;;3.87;;
19038;SDS011;9652;49.014;12.052;2023-03-21T00:37:44;3.93;;;3.63;;
19038;SDS011;9652;49.014;12.052;2023-03-21T00:40:11;4.47;;;4.07;;
19038;SDS011;9652;49.014;12.052;2023-03-21T00:42:39;4.87;;;4.33;;
19038;SDS011;9652;49.014;12.052;2023-03-21T00:45:06;4.90;;;4.40;;
19038;SDS011;9652;49.014;12.052;2023-03-21T00:47:34;6.47;;;5.07;;
19038;SDS011;9652;49.014;12.052;2023-03-21T00:50:02;5.67;;;4.27;;
19038;SDS011;9652;49.014;12.052;2023-03-21T00:52:32;6.67;;;4.87;;
19038;SDS011;9652;49.014;12.052;2023-03-21T00:55:00;4.67;;;4.00;;
19038;SDS011;9652;49.014;12.052;2023-03-21T00:57:27;7.37;;;4.90;;
19038;SDS011;9652;49.014;12.052;2023-03-21T00:59:55;4.70;;;4.27;;
19038;SDS011;9652;49.014;12.052;2023-03-21T01:02:23;4.47;;;4.07;;
19038;SDS011;9652;49.014;12.052;2023-03-21T01:04:51;7.03;;;4.77;;
19038;SDS011;9652;49.014;12.052;2023-03-21T01:07:18;4.70;;;3.83;;
19038;SDS011;9652;49.014;12.052;2023-03-21T01:09:47;4.10;;;3.73;;
19038;SDS011;9652;49.014;12.052;2023-03-21T01:12:17;5.33;;;4.83;;
19038;SDS011;9652;49.014;12.052;2023-03-21T01:14:44;5.33;;;4.43;;
19038;SDS011;9652;49.014;12.052;2023-03-21T01:17:11;5.40;;;4.90;;
19038;SDS011;9652;49.014;12.052;2023-03-21T01:19:38;4.30;;;3.87;;
19038;SDS011;9652;49.014;12.052;2023-03-21T01:22:06;4.93;;;3.97;;
19038;SDS011;9652;49.014;12.052;2023-03-21T01:24:33;5.23;;;4.53;;
19038;SDS011;9652;49.014;12.052;2023-03-21T01:27:02;4.10;;;3.50;;
19038;SDS011;9652;49.014;12.052;2023-03-21T01:29:30;4.30;;;3.87;;
19038;SDS011;9652;49.014;12.052;2023-03-21T01:31:57;4.07;;;3.77;;
19038;SDS011;9652;49.014;12.052;2023-03-21T01:34:24;4.50;;;4.10;;
19038;SDS011;9652;49.014;12.052;2023-03-21T01:36:52;4.20;;;3.63;;
19038;SDS011;9652;49.014;12.052;2023-03-21T01:39:20;4.03;;;3.63;;
19038;SDS011;9652;49.014;12.052;2023-03-21T01:41:48;3.47;;;3.17;;
19038;SDS011;9652;49.014;12.052;2023-03-21T01:44:19;3.93;;;3.60;;
19038;SDS011;9652;49.014;12.052;2023-03-21T01:46:50;5.10;;;4.10;;
19038;SDS011;9652;49.014;12.052;2023-03-21T01:49:51;3.80;;;3.37;;
19038;SDS011;9652;49.014;12.052;2023-03-21T01:52:33;3.90;;;3.50;;
19038;SDS011;9652;49.014;12.052;2023-03-21T01:55:15;3.90;;;3.33;;
19038;SDS011;9652;49.014;12.052;2023-03-21T01:57:54;3.17;;;2.87;;
19038;SDS011;9652;49.014;12.052;2023-03-21T02:00:26;4.50;;;3.80;;
19038;SDS011;9652;49.014;12.052;2023-03-21T02:03:08;3.63;;;3.30;;
19038;SDS011;9652;49.014;12.052;2023-03-21T02:05:50;4.90;;;4.43;;
19038;SDS011;9652;49.014;12.052;2023-03-21T02:08:26;3.97;;;3.60;;
19038;SDS011;9652;49.014;12.052;2023-03-21T02:10:56;3.90;;;3.60;;
19038;SDS011;9652;49.014;12.052;2023-03-21T02:13:37;4.07;;;3.67;;
19038;SDS011;9652;49.014;12.052;2023-03-21T02:16:11;4.13;;;3.73;;
19038;SDS011;9652;49.014;12.052;2023-03-21T02:18:47;4.17;;;3.73;;
19038;SDS011;9652;49.014;12.052;2023-03-21T02:21:33;4.47;;;4.00;;
19038;SDS011;9652;49.014;12.052;2023-03-21T02:27:50;4.23;;;3.53;;
19038;SDS011;9652;49.014;12.052;2023-03-21T02:30:37;4.17;;;3.73;;
19038;SDS011;9652;49.014;12.052;2023-03-21T02:33:58;4.00;;;3.70;;
19038;SDS011;9652;49.014;12.052;2023-03-21T02:37:04;4.23;;;3.83;;
19038;SDS011;9652;49.014;12.052;2023-03-21T02:40:00;4.40;;;4.00;;
19038;SDS011;9652;49.014;12.052;2023-03-21T02:42:42;4.30;;;3.90;;
19038;SDS011;9652;49.014;12.052;2023-03-21T02:45:21;3.77;;;3.40;;
19038;SDS011;9652;49.014;12.052;2023-03-21T02:47:58;4.07;;;3.50;;
19038;SDS011;9652;49.014;12.052;2023-03-21T02:50:34;4.03;;;3.70;;
19038;SDS011;9652;49.014;12.052;2023-03-21T02:53:09;3.67;;;3.30;;
19038;SDS011;9652;49.014;12.052;2023-03-21T02:55:42;4.37;;;3.97;;
19038;SDS011;9652;49.014;12.052;2023-03-21T02:58:14;3.83;;;3.43;;
19038;SDS011;9652;49.014;12.052;2023-03-21T03:00:51;4.10;;;3.70;;
19038;SDS011;9652;49.014;12.052;2023-03-21T03:03:32;5.70;;;3.30;;
19038;SDS011;9652;49.014;12.052;2023-03-21T03:06:03;4.50;;;4.10;;
19038;SDS011;9652;49.014;12.052;2023-03-21T03:08:48;4.37;;;3.80;;
19038;SDS011;9652;49.014;12.052;2023-03-21T03:11:37;4.17;;;3.73;;
19038;SDS011;9652;49.014;12.052;2023-03-21T03:14:13;4.10;;;3.70;;
19038;SDS011;9652;49.014;12.052;2023-03-21T03:17:02;4.23;;;3.60;;
19038;SDS011;9652;49.014;12.052;2023-03-21T03:19:49;4.30;;;3.90;;
19038;SDS011;9652;49.014;12.052;2023-03-21T03:22:43;4.20;;;3.80;;
19038;SDS011;9652;49.014;12.052;2023-03-21T03:25:23;4.00;;;3.60;;
19038;SDS011;9652;49.014;12.052;2023-03-21T03:27:57;4.17;;;3.77;;
19038;SDS011;9652;49.014;12.052;2023-03-21T03:30:30;5.27;;;4.30;;
19038;SDS011;9652;49.014;12.052;2023-03-21T03:32:58;3.93;;;3.53;;
19038;SDS011;9652;49.014;12.052;2023-03-21T03:35:30;3.93;;;3.53;;
19038;SDS011;9652;49.014;12.052;2023-03-21T03:37:59;4.67;;;3.90;;
19038;SDS011;9652;49.014;12.052;2023-03-21T03:40:35;4.27;;;3.97;;
19038;SDS011;9652;49.014;12.052;2023-03-21T03:43:25;5.03;;;3.70;;
19038;SDS011;9652;49.014;12.052;2023-03-21T03:46:03;4.23;;;3.83;;
19038;SDS011;9652;49.014;12.052;2023-03-21T03:48:41;4.23;;;3.83;;
19038;SDS011;9652;49.014;12.052;2023-03-21T03:51:14;4.97;;;3.67;;
19038;SDS011;9652;49.014;12.052;2023-03-21T03:54:17;4.17;;;3.77;;
19038;SDS011;9652;49.014;12.052;2023-03-21T03:56:51;3.87;;;3.47;;
19038;SDS011;9652;49.014;12.052;2023-03-21T03:59:19;5.63;;;3.30;;
19038;SDS011;9652;49.014;12.052;2023-03-21T04:02:05;5.37;;;3.70;;
19038;SDS011;9652;49.014;12.052;2023-03-21T04:04:32;3.83;;;3.50;;
19038;SDS011;9652;49.014;12.052;2023-03-21T04:07:01;4.40;;;3.97;;
19038;SDS011;9652;49.014;12.052;2023-03-21T04:09:28;4.30;;;3.90;;
19038;SDS011;9652;49.014;12.052;2023-03-21T04:11:58;4.30;;;3.90;;
19038;SDS011;9652;49.014;12.052;2023-03-21T04:14:25;4.20;;;3.80;;
19038;SDS011;9652;49.014;12.052;2023-03-21T04:16:52;4.27;;;3.87;;
19038;SDS011;9652;49.014;12.052;2023-03-21T04:19:20;4.23;;;3.83;;
19038;SDS011;9652;49.014;12.052;2023-03-21T04:21:47;5.63;;;5.13;;
19038;SDS011;9652;49.014;12.052;2023-03-21T04:24:16;3.70;;;3.40;;
19038;SDS011;9652;49.014;12.052;2023-03-21T04:26:46;4.23;;;3.83;;
19038;SDS011;9652;49.014;12.052;2023-03-21T04:29:38;5.50;;;3.67;;
19038;SDS011;9652;49.014;12.052;2023-03-21T04:32:44;3.77;;;3.47;;
19038;SDS011;9652;49.014;12.052;2023-03-21T04:35:21;4.47;;;4.07;;
19038;SDS011;9652;49.014;12.052;2023-03-21T04:37:51;5.53;;;3.97;;
19038;SDS011;9652;49.014;12.052;2023-03-21T04:40:18;4.33;;;3.83;;
19038;SDS011;9652;49.014;12.052;2023-03-21T04:42:46;4.13;;;3.77;;
19038;SDS011;9652;49.014;12.052;2023-03-21T04:45:15;3.80;;;3.47;;
19038;SDS011;9652;49.014;12.052;2023-03-21T04:47:44;4.03;;;3.63;;
19038;SDS011;9652;49.014;12.052;2023-03-21T04:50:11;5.40;;;4.03;;
19038;SDS011;9652;49.014;12.052;2023-03-21T04:52:40;4.37;;;3.77;;
19038;SDS011;9652;49.014;12.052;2023-03-21T04:55:07;6.53;;;4.50;;
19038;SDS011;9652;49.014;12.052;2023-03-21T04:57:37;4.20;;;3.70;;
19038;SDS011;9652;49.014;12.052;2023-03-21T05:00:04;4.47;;;3.97;;
19038;SDS011;9652;49.014;12.052;2023-03-21T05:02:38;4.67;;;4.27;;
19038;SDS011;9652;49.014;12.052;2023-03-21T05:05:05;4.07;;;3.67;;
19038;SDS011;9652;49.014;12.052;2023-03-21T05:07:35;4.27;;;3.87;;
19038;SDS011;9652;49.014;12.052;2023-03-21T05:10:04;4.37;;;3.97;;
19038;SDS011;9652;49.014;12.052;2023-03-21T05:12:33;5.07;;;4.27;;
19038;SDS011;9652;49.014;12.052;2023-03-21T05:15:00;4.67;;;4.17;;
19038;SDS011;9652;49.014;12.052;2023-03-21T05:17:28;3.93;;;3.57;;
19038;SDS011;9652;49.014;12.052;2023-03-21T05:19:57;4.70;;;4.30;;
19038;SDS011;9652;49.014;12.052;2023-03-21T05:22:25;6.30;;;4.13;;
19038;SDS011;9652;49.014;12.052;2023-03-21T05:24:53;4.30;;;3.90;;
19038;SDS011;9652;49.014;12.052;2023-03-21T05:27:36;4.60;;;4.20;;
19038;SDS011;9652;49.014;12.052;2023-03-21T05:30:08;5.53;;;4.50;;
19038;SDS011;9652;49.014;12.052;2023-03-21T05:32:38;5.03;;;4.20;;
19038;SDS011;9652;49.014;12.052;2023-03-21T05:35:10;5.03;;;4.47;;
19038;SDS011;9652;49.014;12.052;2023-03-21T05:37:38;4.90;;;4.50;;
19038;SDS011;9652;49.014;12.052;2023-03-21T05:40:06;5.27;;;4.60;;
19038;SDS011;9652;49.014;12.052;2023-03-21T05:42:39;6.47;;;4.13;;
19038;SDS011;9652;49.014;12.052;2023-03-21T05:45:19;5.63;;;4.50;;
19038;SDS011;9652;49.014;12.052;2023-03-21T05:47:48;5.80;;;4.53;;
19038;SDS011;9652;49.014;12.052;2023-03-21T05:50:17;6.00;;;4.53;;
19038;SDS011;9652;49.014;12.052;2023-03-21T05:52:54;4.53;;;4.13;;
19038;SDS011;9652;49.014;12.052;2023-03-21T05:55:21;5.87;;;4.20;;
19038;SDS011;9652;49.014;12.052;2023-03-21T05:57:49;4.90;;;4.50;;
19038;SDS011;9652;49.014;12.052;2023-03-21T06:00:21;6.97;;;4.73;;
19038;SDS011;9652;49.014;12.052;2023-03-21T06:03:06;8.00;;;4.50;;
19038;SDS011;9652;49.014;12.052;2023-03-21T06:05:51;6.10;;;4.70;;
19038;SDS011;9652;49.014;12.052;2023-03-21T06:08:22;5.80;;;5.23;;
19038;SDS011;9652;49.014;12.052;2023-03-21T06:10:49;4.67;;;4.27;;
19038;SDS011;9652;49.014;12.052;2023-03-21T06:13:17;5.17;;;4.40;;
19038;SDS011;9652;49.014;12.052;2023-03-21T06:15:44;5.03;;;4.47;;
19038;SDS011;9652;49.014;12.052;2023-03-21T06:18:15;6.40;;;4.33;;
19038;SDS011;9652;49.014;12.052;2023-03-21T06:20:55;5.27;;;4.23;;
19038;SDS011;9652;49.014;12.052;2023-03-21T06:23:23;5.30;;;4.80;;
19038;SDS011;9652;49.014;12.052;2023-03-21T06:25:50;7.57;;;4.87;;
19038;SDS011;9652;49.014;12.052;2023-03-21T06:28:17;4.83;;;4.37;;
19038;SDS011;9652;49.014;12.052;2023-03-21T06:30:45;5.50;;;4.40;;
19038;SDS011;9652;49.014;12.052;2023-03-21T06:33:19;5.07;;;4.33;;
19038;SDS011;9652;49.014;12.052;2023-03-21T06:35:49;6.17;;;4.77;;
19038;SDS011;9652;49.014;12.052;2023-03-21T06:38:19;6.03;;;5.10;;
19038;SDS011;9652;49.014;12.052;2023-03-21T06:40:47;6.53;;;4.90;;
19038;SDS011;9652;49.014;12.052;2023-03-21T06:43:15;6.03;;;4.83;;
19038;SDS011;9652;49.014;12.052;2023-03-21T06:45:43;5.07;;;4.37;;
19038;SDS011;9652;49.014;12.052;2023-03-21T06:48:11;6.07;;;4.83;;
19038;SDS011;9652;49.014;12.052;2023-03-21T06:50:47;4.80;;;3.83;;
19038;SDS011;9652;49.014;12.052;2023-03-21T06:53:15;4.83;;;4.33;;
19038;SDS011;9652;49.014;12.052;2023-03-21T06:56:11;5.97;;;4.33;;
19038;SDS011;9652;49.014;12.052;2023-03-21T06:58:40;4.70;;;4.27;;
19038;SDS011;9652;49.014;12.052;2023-03-21T07:01:16;4.57;;;3.93;;
19038;SDS011;9652;49.014;12.052;2023-03-21T07:03:53;5.63;;;4.60;;
19038;SDS011;9652;49.014;12.052;2023-03-21T07:06:23;9.40;;;4.17;;
19038;SDS011;9652;49.014;12.052;2023-03-21T07:08:52;5.63;;;4.37;;
19038;SDS011;9652;49.014;12.052;2023-03-21T07:11:23;5.00;;;3.73;;
19038;SDS011;9652;49.014;12.052;2023-03-21T07:13:51;4.70;;;3.97;;
19038;SDS011;9652;49.014;12.052;2023-03-21T07:16:18;5.00;;;4.27;;
19038;SDS011;9652;49.014;12.052;2023-03-21T07:18:46;9.47;;;4.50;;
19038;SDS011;9652;49.014;12.052;2023-03-21T07:21:13;5.50;;;4.60;;
19038;SDS011;9652;49.014;12.052;2023-03-21T07:23:41;8.13;;;4.37;;
19038;SDS011;9652;49.014;12.052;2023-03-21T07:26:08;3.83;;;3.27;;
19038;SDS011;9652;49.014;12.052;2023-03-21T07:28:36;5.13;;;4.03;;
19038;SDS011;9652;49.014;12.052;2023-03-21T07:31:05;5.83;;;4.03;;
19038;SDS011;9652;49.014;12.052;2023-03-21T07:33:33;6.17;;;4.50;;
19038;SDS011;9652;49.014;12.052;2023-03-21T07:36:01;4.30;;;3.87;;
19038;SDS011;9652;49.014;12.052;2023-03-21T07:38:29;5.33;;;4.07;;
19038;SDS011;9652;49.014;12.052;2023-03-21T07:40:57;5.67;;;3.63;;
19038;SDS011;9652;49.014;12.052;2023-03-21T07:43:28;4.27;;;3.80;;
19038;SDS011;9652;49.014;12.052;2023-03-21T07:45:58;4.70;;;3.87;;
19038;SDS011;9652;49.014;12.052;2023-03-21T07:48:26;6.80;;;4.20;;
19038;SDS011;9652;49.014;12.052;2023-03-21T07:50:54;4.87;;;3.97;;
19038;SDS011;9652;49.014;12.052;2023-03-21T07:53:22;7.13;;;4.30;;
19038;SDS011;9652;49.014;12.052;2023-03-21T07:55:49;5.27;;;4.07;;
19038;SDS011;9652;49.014;12.052;2023-03-21T07:58:18;6.87;;;4.37;;
19038;SDS011;9652;49.014;12.052;2023-03-21T08:00:45;5.63;;;3.57;;
19038;SDS011;9652;49.014;12.052;2023-03-21T08:03:14;7.53;;;4.07;;
19038;SDS011;9652;49.014;12.052;2023-03-21T08:05:41;5.13;;;4.27;;
19038;SDS011;9652;49.014;12.052;2023-03-21T08:08:09;6.47;;;4.40;;
19038;SDS011;9652;49.014;12.052;2023-03-21T08:10:36;5.77;;;4.37;;
19038;SDS011;9652;49.014;12.052;2023-03-21T08:13:04;5.10;;;4.20;;
19038;SDS011;9652;49.014;12.052;2023-03-21T08:15:31;7.03;;;4.10;;
19038;SDS011;9652;49.014;12.052;2023-03-21T08:17:58;5.43;;;4.20;;
19038;SDS011;9652;49.014;12.052;2023-03-21T08:20:27;4.97;;;4.20;;
19038;SDS011;9652;49.014;12.052;2023-03-21T08:22:54;5.33;;;4.10;;
19038;SDS011;9652;49.014;12.052;2023-03-21T08:25:21;5.30;;;3.93;;
19038;SDS011;9652;49.014;12.052;2023-03-21T08:27:49;5.97;;;3.30;;
19038;SDS011;9652;49.014;12.052;2023-03-21T08:30:17;5.93;;;3.90;;
19038;SDS011;9652;49.014;12.052;2023-03-21T08:32:47;5.60;;;3.47;;
19038;SDS011;9652;49.014;12.052;2023-03-21T08:35:15;3.93;;;3.50;;
19038;SDS011;9652;49.014;12.052;2023-03-21T08:37:46;4.07;;;3.17;;
19038;SDS011;9652;49.014;12.052;2023-03-21T08:40:13;4.57;;;3.20;;
19038;SDS011;9652;49.014;12.052;2023-03-21T08:42:43;3.60;;;3.30;;
19038;SDS011;9652;49.014;12.052;2023-03-21T08:45:11;3.80;;;2.90;;
19038;SDS011;9652;49.014;12.052;2023-03-21T08:47:40;6.30;;;3.17;;
19038;SDS011;9652;49.014;12.052;2023-03-21T08:50:08;3.07;;;2.77;;
19038;SDS011;9652;49.014;12.052;2023-03-21T08:52:40;2.87;;;2.57;;
19038;SDS011;9652;49.014;12.052;2023-03-21T08:55:09;5.03;;;2.70;;
19038;SDS011;9652;49.014;12.052;2023-03-21T08:57:38;2.37;;;2.17;;
19038;SDS011;9652;49.014;12.052;2023-03-21T09:00:06;2.10;;;1.90;;
19038;SDS011;9652;49.014;12.052;2023-03-21T09:02:38;3.13;;;2.27;;
19038;SDS011;9652;49.014;12.052;2023-03-21T09:05:06;3.23;;;2.30;;
19038;SDS011;9652;49.014;12.052;2023-03-21T09:07:36;5.20;;;2.43;;
19038;SDS011;9652;49.014;12.052;2023-03-21T09:10:04;2.87;;;2.03;;
19038;SDS011;9652;49.014;12.052;2023-03-21T09:12:35;2.90;;;2.53;;
19038;SDS011;9652;49.014;12.052;2023-03-21T09:15:03;3.60;;;1.93;;
19038;SDS011;9652;49.014;12.052;2023-03-21T09:17:31;2.80;;;2.20;;
19038;SDS011;9652;49.014;12.052;2023-03-21T09:19:58;4.00;;;2.07;;
19038;SDS011;9652;49.014;12.052;2023-03-21T09:22:35;1.77;;;1.67;;
19038;SDS011;9652;49.014;12.052;2023-03-21T09:25:03;2.37;;;2.17;;
19038;SDS011;9652;49.014;12.052;2023-03-21T09:27:36;2.57;;;1.90;;
19038;SDS011;9652;49.014;12.052;2023-03-21T09:30:04;2.90;;;2.00;;
19038;SDS011;9652;49.014;12.052;2023-03-21T09:32:34;2.63;;;1.90;;
19038;SDS011;9652;49.014;12.052;2023-03-21T09:35:02;4.47;;;2.40;;
19038;SDS011;9652;49.014;12.052;2023-03-21T09:37:31;3.73;;;2.17;;
19038;SDS011;9652;49.014;12.052;2023-03-21T09:39:58;2.37;;;2.17;;
19038;SDS011;9652;49.014;12.052;2023-03-21T09:42:29;2.10;;;1.90;;
19038;SDS011;9652;49.014;12.052;2023-03-21T09:45:11;3.00;;;1.93;;
19038;SDS011;9652;49.014;12.052;2023-03-21T09:47:47;2.40;;;2.13;;
19038;SDS011;9652;49.014;12.052;2023-03-21T09:50:17;5.27;;;1.77;;
19038;SDS011;9652;49.014;12.052;2023-03-21T09:52:53;2.47;;;2.07;;
19038;SDS011;9652;49.014;12.052;2023-03-21T09:55:24;2.30;;;1.73;;
19038;SDS011;9652;49.014;12.052;2023-03-21T09:57:58;2.77;;;1.80;;
19038;SDS011;9652;49.014;12.052;2023-03-21T10:00:34;2.57;;;1.40;;
19038;SDS011;9652;49.014;12.052;2023-03-21T10:03:09;2.00;;;1.80;;
19038;SDS011;9652;49.014;12.052;2023-03-21T10:05:47;1.90;;;1.70;;
19038;SDS011;9652;49.014;12.052;2023-03-21T10:08:17;1.97;;;1.70;;
19038;SDS011;9652;49.014;12.052;2023-03-21T10:10:48;4.57;;;2.30;;
19038;SDS011;9652;49.014;12.052;2023-03-21T10:13:20;2.67;;;1.93;;
19038;SDS011;9652;49.014;12.052;2023-03-21T10:15:53;3.03;;;1.70;;
19038;SDS011;9652;49.014;12.052;2023-03-21T10:18:24;3.27;;;1.90;;
19038;SDS011;9652;49.014;12.052;2023-03-21T10:20:56;2.43;;;1.60;;
19038;SDS011;9652;49.014;12.052;2023-03-21T10:23:24;3.53;;;1.70;;
19038;SDS011;9652;49.014;12.052;2023-03-21T10:25:55;2.13;;;1.87;;
19038;SDS011;9652;49.014;12.052;2023-03-21T10:28:29;4.70;;;1.60;;
19038;SDS011;9652;49.014;12.052;2023-03-21T10:31:01;3.47;;;1.77;;
19038;SDS011;9652;49.014;12.052;2023-03-21T10:33:33;2.57;;;1.87;;
19038;SDS011;9652;49.014;12.052;2023-03-21T10:36:04;2.63;;;1.70;;
19038;SDS011;9652;49.014;12.052;2023-03-21T10:38:36;3.40;;;2.07;;
19038;SDS011;9652;49.014;12.052;2023-03-21T10:41:11;2.30;;;1.97;;
19038;SDS011;9652;49.014;12.052;2023-03-21T10:43:39;3.10;;;2.07;;
19038;SDS011;9652;49.014;12.052;2023-03-21T10:46:11;1.60;;;1.50;;
19038;SDS011;9652;49.014;12.052;2023-03-21T10:48:42;2.57;;;1.60;;
19038;SDS011;9652;49.014;12.052;2023-03-21T10:51:13;2.93;;;1.70;;
19038;SDS011;9652;49.014;12.052;2023-03-21T10:53:48;2.53;;;1.67;;
19038;SDS011;9652;49.014;12.052;2023-03-21T10:56:18;2.07;;;1.73;;
19038;SDS011;9652;49.014;12.052;2023-03-21T10:58:53;1.67;;;1.57;;
19038;SDS011;9652;49.014;12.052;2023-03-21T11:01:28;1.83;;;1.50;;
19038;SDS011;9652;49.014;12.052;2023-03-21T11:04:04;1.57;;;1.47;;
19038;SDS011;9652;49.014;12.052;2023-03-21T11:06:38;2.50;;;1.67;;
19038;SDS011;9652;49.014;12.052;2023-03-21T11:09:08;1.87;;;1.67;;
19038;SDS011;9652;49.014;12.052;2023-03-21T11:11:48;1.40;;;1.30;;
19038;SDS011;9652;49.014;12.052;2023-03-21T11:14:35;1.70;;;1.60;;
19038;SDS011;9652;49.014;12.052;2023-03-21T11:17:22;2.93;;;1.50;;
19038;SDS011;9652;49.014;12.052;2023-03-21T11:19:56;1.67;;;1.47;;
19038;SDS011;9652;49.014;12.052;2023-03-21T11:22:27;1.60;;;1.50;;
19038;SDS011;9652;49.014;12.052;2023-03-21T11:25:03;3.50;;;1.97;;
19038;SDS011;9652;49.014;12.052;2023-03-21T11:27:36;4.47;;;1.93;;
19038;SDS011;9652;49.014;12.052;2023-03-21T11:30:19;3.10;;;2.20;;
19038;SDS011;9652;49.014;12.052;2023-03-21T11:32:53;2.83;;;2.30;;
19038;SDS011;9652;49.014;12.052;2023-03-21T11:35:22;3.23;;;2.00;;
19038;SDS011;9652;49.014;12.052;2023-03-21T11:37:57;2.80;;;1.83;;
19038;SDS011;9652;49.014;12.052;2023-03-21T11:40:25;4.07;;;2.53;;
19038;SDS011;9652;49.014;12.052;2023-03-21T11:42:55;3.90;;;2.13;;
19038;SDS011;9652;49.014;12.052;2023-03-21T11:45:26;3.27;;;2.33;;
19038;SDS011;9652;49.014;12.052;2023-03-21T11:47:56;2.80;;;2.13;;
19038;SDS011;9652;49.014;12.052;2023-03-21T11:50:27;3.17;;;2.40;;
19038;SDS011;9652;49.014;12.052;2023-03-21T11:53:04;2.50;;;2.30;;
19038;SDS011;9652;49.014;12.052;2023-03-21T11:56:04;1.87;;;1.70;;
19038;SDS011;9652;49.014;12.052;2023-03-21T11:58:55;3.03;;;2.20;;
19038;SDS011;9652;49.014;12.052;2023-03-21T12:01:53;6.87;;;2.17;;
19038;SDS011;9652;49.014;12.052;2023-03-21T12:04:50;3.80;;;2.20;;
19038;SDS011;9652;49.014;12.052;2023-03-21T12:07:30;3.43;;;2.10;;
19038;SDS011;9652;49.014;12.052;2023-03-21T12:10:20;2.13;;;1.90;;
19038;SDS011;9652;49.014;12.052;2023-03-21T12:13:00;3.23;;;2.47;;
19038;SDS011;9652;49.014;12.052;2023-03-21T12:15:47;3.43;;;2.60;;
19038;SDS011;9652;49.014;12.052;2023-03-21T12:18:33;2.33;;;2.00;;
19038;SDS011;9652;49.014;12.052;2023-03-21T12:21:27;3.00;;;2.40;;
19038;SDS011;9652;49.014;12.052;2023-03-21T12:24:05;4.03;;;2.47;;
19038;SDS011;9652;49.014;12.052;2023-03-21T12:26:40;2.57;;;2.20;;
19038;SDS011;9652;49.014;12.052;2023-03-21T12:29:24;2.47;;;2.00;;
19038;SDS011;9652;49.014;12.052;2023-03-21T12:32:17;2.87;;;2.07;;
19038;SDS011;9652;49.014;12.052;2023-03-21T12:35:08;2.67;;;2.40;;
19038;SDS011;9652;49.014;12.052;2023-03-21T12:38:03;2.67;;;1.90;;
19038;SDS011;9652;49.014;12.052;2023-03-21T12:40:43;3.47;;;2.00;;
19038;SDS011;9652;49.014;12.052;2023-03-21T12:43:30;2.70;;;2.13;;
19038;SDS011;9652;49.014;12.052;2023-03-21T12:46:09;2.60;;;2.10;;
19038;SDS011;9652;49.014;12.052;2023-03-21T12:48:45;2.77;;;2.37;;
19038;SDS011;9652;49.014;12.052;2023-03-21T12:51:19;3.40;;;2.43;;
19038;SDS011;9652;49.014;12.052;2023-03-21T12:53:55;3.67;;;2.30;;
19038;SDS011;9652;49.014;12.052;2023-03-21T12:56:31;2.33;;;2.13;;
19038;SDS011;9652;49.014;12.052;2023-03-21T12:59:05;3.50;;;2.63;;
19038;SDS011;9652;49.014;12.052;2023-03-21T13:01:45;2.47;;;2.17;;
19038;SDS011;9652;49.014;12.052;2023-03-21T13:04:30;2.63;;;2.40;;
19038;SDS011;9652;49.014;12.052;2023-03-21T13:07:11;3.37;;;2.40;;
19038;SDS011;9652;49.014;12.052;2023-03-21T13:09:44;3.00;;;2.43;;
19038;SDS011;9652;49.014;12.052;2023-03-21T13:12:18;3.80;;;2.37;;
19038;SDS011;9652;49.014;12.052;2023-03-21T13:15:02;5.70;;;2.30;;
19038;SDS011;9652;49.014;12.052;2023-03-21T13:17:51;2.97;;;2.03;;
19038;SDS011;9652;49.014;12.052;2023-03-21T13:20:31;2.57;;;2.10;;
19038;SDS011;9652;49.014;12.052;2023-03-21T13:23:10;2.33;;;1.90;;
19038;SDS011;9652;49.014;12.052;2023-03-21T13:25:40;2.93;;;1.93;;
19038;SDS011;9652;49.014;12.052;2023-03-21T13:28:15;2.87;;;2.30;;
19038;SDS011;9652;49.014;12.052;2023-03-21T13:30:47;2.67;;;2.07;;
19038;SDS011;9652;49.014;12.052;2023-03-21T13:33:19;4.37;;;2.33;;
19038;SDS011;9652;49.014;12.052;2023-03-21T13:35:53;3.20;;;1.93;;
19038;SDS011;9652;49.014;12.052;2023-03-21T13:38:31;3.10;;;1.97;;
19038;SDS011;9652;49.014;12.052;2023-03-21T13:41:01;4.30;;;2.27;;
19038;SDS011;9652;49.014;12.052;2023-03-21T13:43:34;2.60;;;1.97;;
19038;SDS011;9652;49.014;12.052;2023-03-21T13:46:09;1.63;;;1.53;;
19038;SDS011;9652;49.014;12.052;2023-03-21T13:48:43;2.67;;;1.87;;
19038;SDS011;9652;49.014;12.052;2023-03-21T13:51:40;2.67;;;1.97;;
19038;SDS011;9652;49.014;12.052;2023-03-21T13:54:20;2.80;;;2.00;;
19038;SDS011;9652;49.014;12.052;2023-03-21T13:57:19;3.13;;;2.00;;
19038;SDS011;9652;49.014;12.052;2023-03-21T14:00:16;2.00;;;1.80;;
19038;SDS011;9652;49.014;12.052;2023-03-21T14:02:52;2.20;;;1.80;;
19038;SDS011;9652;49.014;12.052;2023-03-21T14:05:25;2.47;;;1.77;;
19038;SDS011;9652;49.014;12.052;2023-03-21T14:07:54;2.40;;;1.63;;
19038;SDS011;9652;49.014;12.052;2023-03-21T14:10:27;2.13;;;1.70;;
19038;SDS011;9652;49.014;12.052;2023-03-21T14:13:01;1.87;;;1.67;;
19038;SDS011;9652;49.014;12.052;2023-03-21T14:15:32;3.73;;;2.03;;
19038;SDS011;9652;49.014;12.052;2023-03-21T14:18:05;2.87;;;1.80;;
19038;SDS011;9652;49.014;12.052;2023-03-21T14:20:33;2.10;;;1.73;;
19038;SDS011;9652;49.014;12.052;2023-03-21T14:23:03;2.97;;;1.73;;
19038;SDS011;9652;49.014;12.052;2023-03-21T14:25:34;3.07;;;1.53;;
19038;SDS011;9652;49.014;12.052;2023-03-21T14:28:05;2.87;;;1.43;;
19038;SDS011;9652;49.014;12.052;2023-03-21T14:30:40;2.73;;;1.53;;
19038;SDS011;9652;49.014;12.052;2023-03-21T14:33:12;1.30;;;1.20;;
19038;SDS011;9652;49.014;12.052;2023-03-21T14:35:45;2.63;;;1.27;;
19038;SDS011;9652;49.014;12.052;2023-03-21T14:38:18;2.23;;;1.20;;
19038;SDS011;9652;49.014;12.052;2023-03-21T14:40:50;1.57;;;1.17;;
19038;SDS011;9652;49.014;12.052;2023-03-21T14:43:22;2.13;;;1.30;;
19038;SDS011;9652;49.014;12.052;2023-03-21T14:45:50;1.73;;;1.30;;
19038;SDS011;9652;49.014;12.052;2023-03-21T14:48:21;1.50;;;1.17;;
19038;SDS011;9652;49.014;12.052;2023-03-21T14:50:56;1.70;;;1.00;;
19038;SDS011;9652;49.014;12.052;2023-03-21T14:53:31;1.40;;;1.00;;
19038;SDS011;9652;49.014;12.052;2023-03-21T14:56:05;1.67;;;1.00;;
19038;SDS011;9652;49.014;12.052;2023-03-21T14:58:36;3.33;;;1.40;;
19038;SDS011;9652;49.014;12.052;2023-03-21T15:01:10;2.53;;;1.40;;
19038;SDS011;9652;49.014;12.052;2023-03-21T15:03:42;1.60;;;1.40;;
19038;SDS011;9652;49.014;12.052;2023-03-21T15:06:10;1.33;;;1.23;;
19038;SDS011;9652;49.014;12.052;2023-03-21T15:08:39;1.80;;;1.20;;
19038;SDS011;9652;49.014;12.052;2023-03-21T15:11:21;1.53;;;1.40;;
19038;SDS011;9652;49.014;12.052;2023-03-21T15:13:56;1.70;;;1.20;;
19038;SDS011;9652;49.014;12.052;2023-03-21T15:16:27;2.10;;;1.53;;
19038;SDS011;9652;49.014;12.052;2023-03-21T15:18:56;1.83;;;1.50;;
19038;SDS011;9652;49.014;12.052;2023-03-21T15:21:25;3.47;;;1.40;;
19038;SDS011;9652;49.014;12.052;2023-03-21T15:24:00;1.60;;;1.50;;
19038;SDS011;9652;49.014;12.052;2023-03-21T15:26:39;1.60;;;1.20;;
19038;SDS011;9652;49.014;12.052;2023-03-21T15:29:11;2.73;;;1.70;;